sensor_id;sensor_type;location;lat;lon;timestamp;P1;durP1;ratioP1;P2;durP2;ratioP2
31482;SDS011;18103;52.246;8.052;2024-03-25T00:01:53;0.40;;;0.40;;
31482;SDS011;18103;52.246;8.052;2024-03-25T00:04:23;0.27;;;0.27;;
31482;SDS011;18103;52.246;8.052;2024-03-25T00:06:50;0.30;;;0.30;;
31482;SDS011;18103;52.246;8.052;2024-03-25T00:09:17;0.30;;;0.30;;
31482;SDS011;18103;52.246;8.052;2024-03-25T00:11:48;0.20;;;0.20;;
31482;SDS011;18103;52.246;8.052;2024-03-25T00:14:13;0.20;;;0.20;;
31482;SDS011;18103;52.246;8.052;2024-03-25T00:16:41;28.23;;;0.97;;
31482;SDS011;18103;52.246;8.052;2024-03-25T00:19:11;0.10;;;0.10;;
31482;SDS011;18103;52.246;8.052;2024-03-25T00:21:36;0.17;;;0.17;;
31482;SDS011;18103;52.246;8.052;2024-03-25T00:24:01;0.20;;;0.20;;
31482;SDS011;18103;52.246;8.052;2024-03-25T00:26:27;0.37;;;0.37;;
31482;SDS011;18103;52.246;8.052;2024-03-25T00:28:52;0.10;;;0.10;;
31482;SDS011;18103;52.246;8.052;2024-03-25T00:31:20;0.20;;;0.20;;
31482;SDS011;18103;52.246;8.052;2024-03-25T00:33:50;0.20;;;0.20;;
31482;SDS011;18103;52.246;8.052;2024-03-25T00:36:20;0.20;;;0.20;;
31482;SDS011;18103;52.246;8.052;2024-03-25T00:38:48;0.10;;;0.10;;
31482;SDS011;18103;52.246;8.052;2024-03-25T00:41:14;0.20;;;0.20;;
31482;SDS011;18103;52.246;8.052;2024-03-25T00:43:44;0.20;;;0.20;;
31482;SDS011;18103;52.246;8.052;2024-03-25T00:46:09;0.20;;;0.20;;
31482;SDS011;18103;52.246;8.052;2024-03-25T00:48:35;0.50;;;0.50;;
31482;SDS011;18103;52.246;8.052;2024-03-25T00:51:02;0.70;;;0.70;;
31482;SDS011;18103;52.246;8.052;2024-03-25T00:53:28;0.20;;;0.20;;
31482;SDS011;18103;52.246;8.052;2024-03-25T00:55:55;0.10;;;0.10;;
31482;SDS011;18103;52.246;8.052;2024-03-25T00:58:25;0.10;;;0.10;;
31482;SDS011;18103;52.246;8.052;2024-03-25T01:00:51;0.10;;;0.10;;
31482;SDS011;18103;52.246;8.052;2024-03-25T01:03:17;0.20;;;0.20;;
31482;SDS011;18103;52.246;8.052;2024-03-25T01:05:45;0.20;;;0.20;;
31482;SDS011;18103;52.246;8.052;2024-03-25T01:08:10;0.20;;;0.20;;
31482;SDS011;18103;52.246;8.052;2024-03-25T01:10:39;0.80;;;0.80;;
31482;SDS011;18103;52.246;8.052;2024-03-25T01:13:05;0.17;;;0.17;;
31482;SDS011;18103;52.246;8.052;2024-03-25T01:15:32;0.40;;;0.40;;
31482;SDS011;18103;52.246;8.052;2024-03-25T01:18:00;0.10;;;0.10;;
31482;SDS011;18103;52.246;8.052;2024-03-25T01:20:30;0.17;;;0.17;;
31482;SDS011;18103;52.246;8.052;2024-03-25T01:22:55;0.30;;;0.30;;
31482;SDS011;18103;52.246;8.052;2024-03-25T01:25:23;0.20;;;0.20;;
31482;SDS011;18103;52.246;8.052;2024-03-25T01:27:49;0.37;;;0.37;;
31482;SDS011;18103;52.246;8.052;2024-03-25T01:30:14;0.40;;;0.40;;
31482;SDS011;18103;52.246;8.052;2024-03-25T01:32:39;0.27;;;0.27;;
31482;SDS011;18103;52.246;8.052;2024-03-25T01:35:05;0.20;;;0.20;;
31482;SDS011;18103;52.246;8.052;2024-03-25T01:37:34;0.30;;;0.30;;
31482;SDS011;18103;52.246;8.052;2024-03-25T01:40:02;0.13;;;0.13;;
31482;SDS011;18103;52.246;8.052;2024-03-25T01:42:29;0.20;;;0.20;;
31482;SDS011;18103;52.246;8.052;2024-03-25T01:44:55;0.17;;;0.17;;
31482;SDS011;18103;52.246;8.052;2024-03-25T01:47:22;0.20;;;0.20;;
31482;SDS011;18103;52.246;8.052;2024-03-25T01:49:50;0.40;;;0.40;;
31482;SDS011;18103;52.246;8.052;2024-03-25T01:52:19;0.20;;;0.20;;
31482;SDS011;18103;52.246;8.052;2024-03-25T01:54:50;0.20;;;0.20;;
31482;SDS011;18103;52.246;8.052;2024-03-25T01:57:17;0.30;;;0.30;;
31482;SDS011;18103;52.246;8.052;2024-03-25T01:59:48;0.40;;;0.40;;
31482;SDS011;18103;52.246;8.052;2024-03-25T02:02:16;0.53;;;0.53;;
31482;SDS011;18103;52.246;8.052;2024-03-25T02:04:42;0.23;;;0.23;;
31482;SDS011;18103;52.246;8.052;2024-03-25T02:07:07;0.10;;;0.10;;
31482;SDS011;18103;52.246;8.052;2024-03-25T02:09:41;0.30;;;0.30;;
31482;SDS011;18103;52.246;8.052;2024-03-25T02:12:07;0.20;;;0.20;;
31482;SDS011;18103;52.246;8.052;2024-03-25T02:14:34;0.20;;;0.20;;
31482;SDS011;18103;52.246;8.052;2024-03-25T02:17:04;1.03;;;1.03;;
31482;SDS011;18103;52.246;8.052;2024-03-25T02:19:33;0.20;;;0.20;;
31482;SDS011;18103;52.246;8.052;2024-03-25T02:22:04;0.20;;;0.20;;
31482;SDS011;18103;52.246;8.052;2024-03-25T02:24:30;0.37;;;0.37;;
31482;SDS011;18103;52.246;8.052;2024-03-25T02:26:57;0.20;;;0.20;;
31482;SDS011;18103;52.246;8.052;2024-03-25T02:29:32;0.10;;;0.10;;
31482;SDS011;18103;52.246;8.052;2024-03-25T02:32:00;0.20;;;0.20;;
31482;SDS011;18103;52.246;8.052;2024-03-25T02:34:25;0.20;;;0.20;;
31482;SDS011;18103;52.246;8.052;2024-03-25T02:36:52;0.70;;;0.70;;
31482;SDS011;18103;52.246;8.052;2024-03-25T02:39:21;0.20;;;0.20;;
31482;SDS011;18103;52.246;8.052;2024-03-25T02:41:49;0.87;;;0.63;;
31482;SDS011;18103;52.246;8.052;2024-03-25T02:44:18;0.30;;;0.30;;
31482;SDS011;18103;52.246;8.052;2024-03-25T02:46:43;0.20;;;0.20;;
31482;SDS011;18103;52.246;8.052;2024-03-25T02:49:12;0.20;;;0.20;;
31482;SDS011;18103;52.246;8.052;2024-03-25T02:51:37;0.40;;;0.40;;
31482;SDS011;18103;52.246;8.052;2024-03-25T02:54:08;0.10;;;0.10;;
31482;SDS011;18103;52.246;8.052;2024-03-25T02:56:36;1.43;;;1.33;;
31482;SDS011;18103;52.246;8.052;2024-03-25T02:59:04;0.20;;;0.20;;
31482;SDS011;18103;52.246;8.052;2024-03-25T03:01:32;1.40;;;1.30;;
31482;SDS011;18103;52.246;8.052;2024-03-25T03:03:58;0.20;;;0.20;;
31482;SDS011;18103;52.246;8.052;2024-03-25T03:06:23;0.20;;;0.20;;
31482;SDS011;18103;52.246;8.052;2024-03-25T03:08:51;0.70;;;0.70;;
31482;SDS011;18103;52.246;8.052;2024-03-25T03:11:18;1.10;;;1.10;;
31482;SDS011;18103;52.246;8.052;2024-03-25T03:13:44;0.20;;;0.20;;
31482;SDS011;18103;52.246;8.052;2024-03-25T03:16:11;2.00;;;1.50;;
31482;SDS011;18103;52.246;8.052;2024-03-25T03:18:37;1.37;;;1.27;;
31482;SDS011;18103;52.246;8.052;2024-03-25T03:21:02;0.20;;;0.20;;
31482;SDS011;18103;52.246;8.052;2024-03-25T03:23:28;0.10;;;0.10;;
31482;SDS011;18103;52.246;8.052;2024-03-25T03:25:53;0.20;;;0.20;;
31482;SDS011;18103;52.246;8.052;2024-03-25T03:28:18;0.10;;;0.10;;
31482;SDS011;18103;52.246;8.052;2024-03-25T03:30:44;1.70;;;1.13;;
31482;SDS011;18103;52.246;8.052;2024-03-25T03:33:11;0.20;;;0.20;;
31482;SDS011;18103;52.246;8.052;2024-03-25T03:35:37;0.20;;;0.20;;
31482;SDS011;18103;52.246;8.052;2024-03-25T03:38:05;0.20;;;0.20;;
31482;SDS011;18103;52.246;8.052;2024-03-25T03:40:32;0.20;;;0.20;;
31482;SDS011;18103;52.246;8.052;2024-03-25T03:43:00;0.63;;;0.63;;
31482;SDS011;18103;52.246;8.052;2024-03-25T03:45:32;0.20;;;0.20;;
31482;SDS011;18103;52.246;8.052;2024-03-25T03:47:58;0.20;;;0.20;;
31482;SDS011;18103;52.246;8.052;2024-03-25T03:50:24;0.20;;;0.20;;
31482;SDS011;18103;52.246;8.052;2024-03-25T03:52:49;0.20;;;0.20;;
31482;SDS011;18103;52.246;8.052;2024-03-25T03:55:14;2.00;;;1.90;;
31482;SDS011;18103;52.246;8.052;2024-03-25T03:57:40;0.30;;;0.30;;
31482;SDS011;18103;52.246;8.052;2024-03-25T04:00:09;0.10;;;0.10;;
31482;SDS011;18103;52.246;8.052;2024-03-25T04:02:36;0.20;;;0.20;;
31482;SDS011;18103;52.246;8.052;2024-03-25T04:05:07;0.20;;;0.20;;
31482;SDS011;18103;52.246;8.052;2024-03-25T04:07:33;3.40;;;2.10;;
31482;SDS011;18103;52.246;8.052;2024-03-25T04:10:00;0.20;;;0.20;;
31482;SDS011;18103;52.246;8.052;2024-03-25T04:12:28;0.40;;;0.40;;
31482;SDS011;18103;52.246;8.052;2024-03-25T04:14:57;0.40;;;0.40;;
31482;SDS011;18103;52.246;8.052;2024-03-25T04:17:22;0.20;;;0.20;;
31482;SDS011;18103;52.246;8.052;2024-03-25T04:19:50;0.20;;;0.20;;
31482;SDS011;18103;52.246;8.052;2024-03-25T04:22:18;0.17;;;0.17;;
31482;SDS011;18103;52.246;8.052;2024-03-25T04:24:46;0.20;;;0.20;;
31482;SDS011;18103;52.246;8.052;2024-03-25T04:27:16;1.50;;;1.40;;
31482;SDS011;18103;52.246;8.052;2024-03-25T04:29:47;0.20;;;0.20;;
31482;SDS011;18103;52.246;8.052;2024-03-25T04:32:15;0.20;;;0.20;;
31482;SDS011;18103;52.246;8.052;2024-03-25T04:34:43;0.10;;;0.10;;
31482;SDS011;18103;52.246;8.052;2024-03-25T04:37:14;0.40;;;0.40;;
31482;SDS011;18103;52.246;8.052;2024-03-25T04:39:40;0.23;;;0.23;;
31482;SDS011;18103;52.246;8.052;2024-03-25T04:42:07;0.30;;;0.30;;
31482;SDS011;18103;52.246;8.052;2024-03-25T04:44:40;0.20;;;0.20;;
31482;SDS011;18103;52.246;8.052;2024-03-25T04:47:08;0.20;;;0.20;;
31482;SDS011;18103;52.246;8.052;2024-03-25T04:49:36;0.20;;;0.20;;
31482;SDS011;18103;52.246;8.052;2024-03-25T04:52:02;0.40;;;0.40;;
31482;SDS011;18103;52.246;8.052;2024-03-25T04:54:34;0.20;;;0.20;;
31482;SDS011;18103;52.246;8.052;2024-03-25T04:57:04;0.20;;;0.20;;
31482;SDS011;18103;52.246;8.052;2024-03-25T04:59:31;0.20;;;0.20;;
31482;SDS011;18103;52.246;8.052;2024-03-25T05:02:01;0.20;;;0.20;;
31482;SDS011;18103;52.246;8.052;2024-03-25T05:04:29;0.20;;;0.20;;
31482;SDS011;18103;52.246;8.052;2024-03-25T05:06:57;0.20;;;0.20;;
31482;SDS011;18103;52.246;8.052;2024-03-25T05:09:24;0.60;;;0.60;;
31482;SDS011;18103;52.246;8.052;2024-03-25T05:11:55;0.20;;;0.20;;
31482;SDS011;18103;52.246;8.052;2024-03-25T05:14:22;0.20;;;0.20;;
31482;SDS011;18103;52.246;8.052;2024-03-25T05:16:48;0.10;;;0.10;;
31482;SDS011;18103;52.246;8.052;2024-03-25T05:19:14;0.20;;;0.20;;
31482;SDS011;18103;52.246;8.052;2024-03-25T05:21:42;3.10;;;0.93;;
31482;SDS011;18103;52.246;8.052;2024-03-25T05:24:10;0.20;;;0.20;;
31482;SDS011;18103;52.246;8.052;2024-03-25T05:26:38;0.40;;;0.40;;
31482;SDS011;18103;52.246;8.052;2024-03-25T05:29:03;0.87;;;0.87;;
31482;SDS011;18103;52.246;8.052;2024-03-25T05:31:29;0.17;;;0.17;;
31482;SDS011;18103;52.246;8.052;2024-03-25T05:33:58;0.30;;;0.30;;
31482;SDS011;18103;52.246;8.052;2024-03-25T05:36:27;0.20;;;0.20;;
31482;SDS011;18103;52.246;8.052;2024-03-25T05:38:53;0.20;;;0.20;;
31482;SDS011;18103;52.246;8.052;2024-03-25T05:41:18;0.50;;;0.50;;
31482;SDS011;18103;52.246;8.052;2024-03-25T05:43:43;0.20;;;0.20;;
31482;SDS011;18103;52.246;8.052;2024-03-25T05:46:09;0.13;;;0.13;;
31482;SDS011;18103;52.246;8.052;2024-03-25T05:48:34;0.20;;;0.20;;
31482;SDS011;18103;52.246;8.052;2024-03-25T05:53:37;0.40;;;0.40;;
31482;SDS011;18103;52.246;8.052;2024-03-25T05:56:05;0.20;;;0.20;;
31482;SDS011;18103;52.246;8.052;2024-03-25T05:58:31;0.20;;;0.20;;
31482;SDS011;18103;52.246;8.052;2024-03-25T06:00:58;0.20;;;0.20;;
31482;SDS011;18103;52.246;8.052;2024-03-25T06:03:29;0.20;;;0.20;;
31482;SDS011;18103;52.246;8.052;2024-03-25T06:05:57;0.20;;;0.20;;
31482;SDS011;18103;52.246;8.052;2024-03-25T06:08:25;0.67;;;0.67;;
31482;SDS011;18103;52.246;8.052;2024-03-25T06:10:50;0.20;;;0.20;;
31482;SDS011;18103;52.246;8.052;2024-03-25T06:13:18;0.60;;;0.60;;
31482;SDS011;18103;52.246;8.052;2024-03-25T06:15:46;0.30;;;0.30;;
31482;SDS011;18103;52.246;8.052;2024-03-25T06:18:14;0.30;;;0.30;;
31482;SDS011;18103;52.246;8.052;2024-03-25T06:20:39;2.53;;;2.33;;
31482;SDS011;18103;52.246;8.052;2024-03-25T06:23:05;0.27;;;0.27;;
31482;SDS011;18103;52.246;8.052;2024-03-25T06:25:35;0.20;;;0.20;;
31482;SDS011;18103;52.246;8.052;2024-03-25T06:28:02;0.20;;;0.20;;
31482;SDS011;18103;52.246;8.052;2024-03-25T06:30:33;0.20;;;0.20;;
31482;SDS011;18103;52.246;8.052;2024-03-25T06:33:19;0.10;;;0.10;;
31482;SDS011;18103;52.246;8.052;2024-03-25T06:36:04;0.30;;;0.30;;
31482;SDS011;18103;52.246;8.052;2024-03-25T06:38:32;0.30;;;0.30;;
31482;SDS011;18103;52.246;8.052;2024-03-25T06:40:59;0.47;;;0.47;;
31482;SDS011;18103;52.246;8.052;2024-03-25T06:43:25;0.37;;;0.37;;
31482;SDS011;18103;52.246;8.052;2024-03-25T06:45:50;0.70;;;0.70;;
31482;SDS011;18103;52.246;8.052;2024-03-25T06:48:18;0.30;;;0.27;;
31482;SDS011;18103;52.246;8.052;2024-03-25T06:50:52;0.73;;;0.73;;
31482;SDS011;18103;52.246;8.052;2024-03-25T06:53:20;0.20;;;0.20;;
31482;SDS011;18103;52.246;8.052;2024-03-25T06:55:55;0.43;;;0.43;;
31482;SDS011;18103;52.246;8.052;2024-03-25T06:58:24;0.20;;;0.20;;
31482;SDS011;18103;52.246;8.052;2024-03-25T07:00:54;0.40;;;0.40;;
31482;SDS011;18103;52.246;8.052;2024-03-25T07:03:22;0.30;;;0.30;;
31482;SDS011;18103;52.246;8.052;2024-03-25T07:05:51;0.20;;;0.20;;
31482;SDS011;18103;52.246;8.052;2024-03-25T07:08:23;0.20;;;0.20;;
31482;SDS011;18103;52.246;8.052;2024-03-25T07:10:51;0.33;;;0.33;;
31482;SDS011;18103;52.246;8.052;2024-03-25T07:13:17;0.20;;;0.20;;
31482;SDS011;18103;52.246;8.052;2024-03-25T07:15:43;0.60;;;0.60;;
31482;SDS011;18103;52.246;8.052;2024-03-25T07:18:11;0.10;;;0.10;;
31482;SDS011;18103;52.246;8.052;2024-03-25T07:20:42;0.40;;;0.40;;
31482;SDS011;18103;52.246;8.052;2024-03-25T07:23:08;0.50;;;0.50;;
31482;SDS011;18103;52.246;8.052;2024-03-25T07:25:34;0.73;;;0.73;;
31482;SDS011;18103;52.246;8.052;2024-03-25T07:28:00;0.60;;;0.60;;
31482;SDS011;18103;52.246;8.052;2024-03-25T07:30:26;0.23;;;0.23;;
31482;SDS011;18103;52.246;8.052;2024-03-25T07:32:57;0.20;;;0.20;;
31482;SDS011;18103;52.246;8.052;2024-03-25T07:35:25;0.57;;;0.57;;
31482;SDS011;18103;52.246;8.052;2024-03-25T07:37:56;0.30;;;0.23;;
31482;SDS011;18103;52.246;8.052;2024-03-25T07:40:28;0.10;;;0.10;;
31482;SDS011;18103;52.246;8.052;2024-03-25T07:42:56;0.33;;;0.33;;
31482;SDS011;18103;52.246;8.052;2024-03-25T07:45:21;0.37;;;0.37;;
31482;SDS011;18103;52.246;8.052;2024-03-25T07:47:51;0.20;;;0.20;;
31482;SDS011;18103;52.246;8.052;2024-03-25T07:50:19;0.33;;;0.33;;
31482;SDS011;18103;52.246;8.052;2024-03-25T07:52:45;1.43;;;0.97;;
31482;SDS011;18103;52.246;8.052;2024-03-25T07:55:10;0.67;;;0.60;;
31482;SDS011;18103;52.246;8.052;2024-03-25T07:57:42;0.67;;;0.67;;
31482;SDS011;18103;52.246;8.052;2024-03-25T08:00:08;0.30;;;0.30;;
31482;SDS011;18103;52.246;8.052;2024-03-25T08:02:37;2.80;;;1.50;;
31482;SDS011;18103;52.246;8.052;2024-03-25T08:05:02;6.07;;;1.27;;
31482;SDS011;18103;52.246;8.052;2024-03-25T08:07:33;0.43;;;0.40;;
31482;SDS011;18103;52.246;8.052;2024-03-25T08:10:01;0.20;;;0.20;;
31482;SDS011;18103;52.246;8.052;2024-03-25T08:12:27;4.73;;;1.07;;
31482;SDS011;18103;52.246;8.052;2024-03-25T08:14:53;0.37;;;0.37;;
31482;SDS011;18103;52.246;8.052;2024-03-25T08:17:20;3.43;;;2.93;;
31482;SDS011;18103;52.246;8.052;2024-03-25T08:19:48;0.53;;;0.53;;
31482;SDS011;18103;52.246;8.052;2024-03-25T08:22:16;2.27;;;0.43;;
31482;SDS011;18103;52.246;8.052;2024-03-25T08:24:44;7.60;;;0.80;;
31482;SDS011;18103;52.246;8.052;2024-03-25T08:27:09;0.30;;;0.30;;
31482;SDS011;18103;52.246;8.052;2024-03-25T08:29:37;8.60;;;0.80;;
31482;SDS011;18103;52.246;8.052;2024-03-25T08:32:03;2.87;;;0.83;;
31482;SDS011;18103;52.246;8.052;2024-03-25T08:34:30;3.60;;;1.10;;
31482;SDS011;18103;52.246;8.052;2024-03-25T08:37:00;2.50;;;1.10;;
31482;SDS011;18103;52.246;8.052;2024-03-25T08:39:29;3.57;;;1.23;;
31482;SDS011;18103;52.246;8.052;2024-03-25T08:41:54;2.77;;;1.07;;
31482;SDS011;18103;52.246;8.052;2024-03-25T08:44:22;7.10;;;1.10;;
31482;SDS011;18103;52.246;8.052;2024-03-25T08:46:49;0.73;;;0.70;;
31482;SDS011;18103;52.246;8.052;2024-03-25T08:49:14;1.07;;;0.80;;
31482;SDS011;18103;52.246;8.052;2024-03-25T08:51:42;6.43;;;1.80;;
31482;SDS011;18103;52.246;8.052;2024-03-25T08:54:07;7.83;;;1.30;;
31482;SDS011;18103;52.246;8.052;2024-03-25T08:56:33;1.87;;;0.97;;
31482;SDS011;18103;52.246;8.052;2024-03-25T08:58:58;11.37;;;1.87;;
31482;SDS011;18103;52.246;8.052;2024-03-25T09:01:26;0.90;;;0.50;;
31482;SDS011;18103;52.246;8.052;2024-03-25T09:03:51;14.33;;;1.33;;
31482;SDS011;18103;52.246;8.052;2024-03-25T09:06:17;10.57;;;1.80;;
31482;SDS011;18103;52.246;8.052;2024-03-25T09:08:45;14.03;;;1.17;;
31482;SDS011;18103;52.246;8.052;2024-03-25T09:11:31;1.33;;;0.73;;
31482;SDS011;18103;52.246;8.052;2024-03-25T09:14:01;7.20;;;0.87;;
31482;SDS011;18103;52.246;8.052;2024-03-25T09:16:31;6.60;;;1.73;;
31482;SDS011;18103;52.246;8.052;2024-03-25T09:18:57;3.17;;;0.93;;
31482;SDS011;18103;52.246;8.052;2024-03-25T09:21:22;6.97;;;1.60;;
31482;SDS011;18103;52.246;8.052;2024-03-25T09:23:52;4.53;;;1.33;;
31482;SDS011;18103;52.246;8.052;2024-03-25T09:26:20;3.37;;;0.90;;
31482;SDS011;18103;52.246;8.052;2024-03-25T09:28:51;6.53;;;1.57;;
31482;SDS011;18103;52.246;8.052;2024-03-25T09:31:17;6.50;;;1.10;;
31482;SDS011;18103;52.246;8.052;2024-03-25T09:33:42;3.17;;;0.80;;
31482;SDS011;18103;52.246;8.052;2024-03-25T09:36:10;10.47;;;1.57;;
31482;SDS011;18103;52.246;8.052;2024-03-25T09:38:38;11.93;;;1.30;;
31482;SDS011;18103;52.246;8.052;2024-03-25T09:41:03;5.20;;;1.00;;
31482;SDS011;18103;52.246;8.052;2024-03-25T09:44:02;8.30;;;1.63;;
31482;SDS011;18103;52.246;8.052;2024-03-25T09:46:24;5.23;;;1.10;;
31482;SDS011;18103;52.246;8.052;2024-03-25T09:48:54;10.53;;;1.73;;
31482;SDS011;18103;52.246;8.052;2024-03-25T09:51:24;6.23;;;1.43;;
31482;SDS011;18103;52.246;8.052;2024-03-25T09:53:50;7.80;;;1.60;;
31482;SDS011;18103;52.246;8.052;2024-03-25T09:56:15;5.67;;;1.30;;
31482;SDS011;18103;52.246;8.052;2024-03-25T09:58:45;2.73;;;1.00;;
31482;SDS011;18103;52.246;8.052;2024-03-25T10:01:13;9.60;;;1.60;;
31482;SDS011;18103;52.246;8.052;2024-03-25T10:03:44;9.03;;;1.50;;
31482;SDS011;18103;52.246;8.052;2024-03-25T10:06:12;7.77;;;1.53;;
31482;SDS011;18103;52.246;8.052;2024-03-25T10:08:38;10.47;;;1.80;;
31482;SDS011;18103;52.246;8.052;2024-03-25T10:11:03;4.27;;;1.60;;
31482;SDS011;18103;52.246;8.052;2024-03-25T10:13:32;9.57;;;1.33;;
31482;SDS011;18103;52.246;8.052;2024-03-25T10:15:57;2.83;;;0.97;;
31482;SDS011;18103;52.246;8.052;2024-03-25T10:18:23;5.13;;;1.30;;
31482;SDS011;18103;52.246;8.052;2024-03-25T10:20:51;6.90;;;1.80;;
31482;SDS011;18103;52.246;8.052;2024-03-25T10:23:23;17.93;;;1.67;;
31482;SDS011;18103;52.246;8.052;2024-03-25T10:25:53;4.53;;;1.00;;
31482;SDS011;18103;52.246;8.052;2024-03-25T10:28:19;6.63;;;1.57;;
31482;SDS011;18103;52.246;8.052;2024-03-25T10:30:45;7.33;;;1.33;;
31482;SDS011;18103;52.246;8.052;2024-03-25T10:33:13;3.90;;;1.10;;
31482;SDS011;18103;52.246;8.052;2024-03-25T10:35:39;13.63;;;1.30;;
31482;SDS011;18103;52.246;8.052;2024-03-25T10:38:09;10.77;;;1.73;;
31482;SDS011;18103;52.246;8.052;2024-03-25T10:40:38;8.17;;;1.40;;
31482;SDS011;18103;52.246;8.052;2024-03-25T10:43:05;7.60;;;1.53;;
31482;SDS011;18103;52.246;8.052;2024-03-25T10:45:45;15.07;;;1.50;;
31482;SDS011;18103;52.246;8.052;2024-03-25T10:50:47;11.97;;;1.70;;
31482;SDS011;18103;52.246;8.052;2024-03-25T10:53:14;12.83;;;2.07;;
31482;SDS011;18103;52.246;8.052;2024-03-25T10:55:45;6.13;;;1.50;;
31482;SDS011;18103;52.246;8.052;2024-03-25T10:58:15;11.23;;;1.97;;
31482;SDS011;18103;52.246;8.052;2024-03-25T11:00:44;7.47;;;1.33;;
31482;SDS011;18103;52.246;8.052;2024-03-25T11:03:12;10.70;;;1.70;;
31482;SDS011;18103;52.246;8.052;2024-03-25T11:05:38;5.67;;;1.50;;
31482;SDS011;18103;52.246;8.052;2024-03-25T11:08:10;11.33;;;1.90;;
31482;SDS011;18103;52.246;8.052;2024-03-25T11:10:39;22.50;;;3.27;;
31482;SDS011;18103;52.246;8.052;2024-03-25T11:13:12;9.47;;;1.90;;
31482;SDS011;18103;52.246;8.052;2024-03-25T11:15:46;9.70;;;1.97;;
31482;SDS011;18103;52.246;8.052;2024-03-25T11:18:21;10.53;;;2.20;;
31482;SDS011;18103;52.246;8.052;2024-03-25T11:21:05;6.57;;;1.60;;
31482;SDS011;18103;52.246;8.052;2024-03-25T11:23:40;8.23;;;2.13;;
31482;SDS011;18103;52.246;8.052;2024-03-25T11:26:19;13.83;;;1.73;;
31482;SDS011;18103;52.246;8.052;2024-03-25T11:28:55;11.33;;;1.60;;
31482;SDS011;18103;52.246;8.052;2024-03-25T11:31:21;7.97;;;1.77;;
31482;SDS011;18103;52.246;8.052;2024-03-25T11:33:49;11.37;;;2.03;;
31482;SDS011;18103;52.246;8.052;2024-03-25T11:36:15;10.13;;;1.70;;
31482;SDS011;18103;52.246;8.052;2024-03-25T11:38:43;10.17;;;1.80;;
31482;SDS011;18103;52.246;8.052;2024-03-25T11:41:11;9.60;;;1.33;;
31482;SDS011;18103;52.246;8.052;2024-03-25T11:43:37;5.10;;;1.40;;
31482;SDS011;18103;52.246;8.052;2024-03-25T11:46:03;4.03;;;0.80;;
31482;SDS011;18103;52.246;8.052;2024-03-25T11:48:35;5.83;;;1.33;;
31482;SDS011;18103;52.246;8.052;2024-03-25T11:51:03;9.97;;;1.87;;
31482;SDS011;18103;52.246;8.052;2024-03-25T11:53:31;10.73;;;1.30;;
31482;SDS011;18103;52.246;8.052;2024-03-25T11:55:56;8.07;;;1.27;;
31482;SDS011;18103;52.246;8.052;2024-03-25T11:58:24;5.77;;;1.67;;
31482;SDS011;18103;52.246;8.052;2024-03-25T12:00:54;7.13;;;1.40;;
31482;SDS011;18103;52.246;8.052;2024-03-25T12:03:21;6.40;;;1.37;;
31482;SDS011;18103;52.246;8.052;2024-03-25T12:05:47;3.97;;;1.17;;
31482;SDS011;18103;52.246;8.052;2024-03-25T12:08:17;8.30;;;1.70;;
31482;SDS011;18103;52.246;8.052;2024-03-25T12:10:42;7.27;;;1.67;;
31482;SDS011;18103;52.246;8.052;2024-03-25T12:13:29;4.40;;;1.30;;
31482;SDS011;18103;52.246;8.052;2024-03-25T12:15:54;11.37;;;2.13;;
31482;SDS011;18103;52.246;8.052;2024-03-25T12:18:22;5.63;;;1.60;;
31482;SDS011;18103;52.246;8.052;2024-03-25T12:20:50;10.90;;;2.20;;
31482;SDS011;18103;52.246;8.052;2024-03-25T12:23:19;13.83;;;2.13;;
31482;SDS011;18103;52.246;8.052;2024-03-25T12:25:49;13.87;;;1.77;;
31482;SDS011;18103;52.246;8.052;2024-03-25T12:28:15;8.53;;;1.60;;
31482;SDS011;18103;52.246;8.052;2024-03-25T12:30:50;3.13;;;1.23;;
31482;SDS011;18103;52.246;8.052;2024-03-25T12:33:19;8.83;;;1.83;;
31482;SDS011;18103;52.246;8.052;2024-03-25T12:35:48;3.70;;;1.43;;
31482;SDS011;18103;52.246;8.052;2024-03-25T12:38:26;6.67;;;1.30;;
31482;SDS011;18103;52.246;8.052;2024-03-25T12:41:08;3.40;;;1.60;;
31482;SDS011;18103;52.246;8.052;2024-03-25T12:43:43;11.40;;;1.37;;
31482;SDS011;18103;52.246;8.052;2024-03-25T12:46:10;3.47;;;1.27;;
31482;SDS011;18103;52.246;8.052;2024-03-25T12:48:40;6.83;;;1.23;;
31482;SDS011;18103;52.246;8.052;2024-03-25T12:51:06;5.43;;;1.33;;
31482;SDS011;18103;52.246;8.052;2024-03-25T12:53:38;6.93;;;1.80;;
31482;SDS011;18103;52.246;8.052;2024-03-25T12:56:06;7.80;;;1.40;;
31482;SDS011;18103;52.246;8.052;2024-03-25T12:58:32;5.33;;;1.50;;
31482;SDS011;18103;52.246;8.052;2024-03-25T13:00:59;8.80;;;2.07;;
31482;SDS011;18103;52.246;8.052;2024-03-25T13:03:27;10.50;;;1.90;;
31482;SDS011;18103;52.246;8.052;2024-03-25T13:05:52;5.83;;;1.47;;
31482;SDS011;18103;52.246;8.052;2024-03-25T13:08:19;7.30;;;1.67;;
31482;SDS011;18103;52.246;8.052;2024-03-25T13:10:44;8.97;;;1.60;;
31482;SDS011;18103;52.246;8.052;2024-03-25T13:13:10;12.60;;;1.77;;
31482;SDS011;18103;52.246;8.052;2024-03-25T13:15:35;10.50;;;2.00;;
31482;SDS011;18103;52.246;8.052;2024-03-25T13:18:03;9.93;;;1.30;;
31482;SDS011;18103;52.246;8.052;2024-03-25T13:20:31;12.70;;;1.10;;
31482;SDS011;18103;52.246;8.052;2024-03-25T13:23:01;4.63;;;1.37;;
31482;SDS011;18103;52.246;8.052;2024-03-25T13:25:26;13.53;;;2.37;;
31482;SDS011;18103;52.246;8.052;2024-03-25T13:27:54;6.27;;;1.37;;
31482;SDS011;18103;52.246;8.052;2024-03-25T13:30:22;8.40;;;1.43;;
31482;SDS011;18103;52.246;8.052;2024-03-25T13:32:49;13.40;;;1.57;;
31482;SDS011;18103;52.246;8.052;2024-03-25T13:35:20;7.37;;;1.70;;
31482;SDS011;18103;52.246;8.052;2024-03-25T13:37:47;12.00;;;1.43;;
31482;SDS011;18103;52.246;8.052;2024-03-25T13:40:15;7.57;;;1.40;;
31482;SDS011;18103;52.246;8.052;2024-03-25T13:42:43;7.63;;;1.53;;
31482;SDS011;18103;52.246;8.052;2024-03-25T13:45:11;11.10;;;1.70;;
31482;SDS011;18103;52.246;8.052;2024-03-25T13:47:37;4.87;;;1.43;;
31482;SDS011;18103;52.246;8.052;2024-03-25T13:50:05;6.63;;;1.20;;
31482;SDS011;18103;52.246;8.052;2024-03-25T13:52:38;10.17;;;1.07;;
31482;SDS011;18103;52.246;8.052;2024-03-25T13:55:08;6.40;;;1.50;;
31482;SDS011;18103;52.246;8.052;2024-03-25T13:57:36;14.43;;;1.40;;
31482;SDS011;18103;52.246;8.052;2024-03-25T14:00:01;5.33;;;1.30;;
31482;SDS011;18103;52.246;8.052;2024-03-25T14:02:35;5.37;;;1.27;;
31482;SDS011;18103;52.246;8.052;2024-03-25T14:05:04;2.93;;;1.07;;
31482;SDS011;18103;52.246;8.052;2024-03-25T14:07:32;7.33;;;1.33;;
31482;SDS011;18103;52.246;8.052;2024-03-25T14:10:00;3.80;;;1.47;;
31482;SDS011;18103;52.246;8.052;2024-03-25T14:12:28;4.60;;;1.40;;
31482;SDS011;18103;52.246;8.052;2024-03-25T14:14:53;12.00;;;1.27;;
31482;SDS011;18103;52.246;8.052;2024-03-25T14:17:21;4.87;;;1.30;;
31482;SDS011;18103;52.246;8.052;2024-03-25T14:19:46;7.60;;;1.30;;
31482;SDS011;18103;52.246;8.052;2024-03-25T14:22:15;6.60;;;0.97;;
31482;SDS011;18103;52.246;8.052;2024-03-25T14:24:43;4.77;;;1.47;;
31482;SDS011;18103;52.246;8.052;2024-03-25T14:27:13;7.47;;;1.03;;
31482;SDS011;18103;52.246;8.052;2024-03-25T14:29:39;5.97;;;1.10;;
31482;SDS011;18103;52.246;8.052;2024-03-25T14:32:04;6.93;;;1.40;;
31482;SDS011;18103;52.246;8.052;2024-03-25T14:34:30;5.33;;;1.13;;
31482;SDS011;18103;52.246;8.052;2024-03-25T14:36:55;8.90;;;1.23;;
31482;SDS011;18103;52.246;8.052;2024-03-25T14:39:26;3.30;;;1.30;;
31482;SDS011;18103;52.246;8.052;2024-03-25T14:41:54;2.90;;;1.20;;
31482;SDS011;18103;52.246;8.052;2024-03-25T14:44:19;5.73;;;1.17;;
31482;SDS011;18103;52.246;8.052;2024-03-25T14:46:44;5.63;;;1.43;;
31482;SDS011;18103;52.246;8.052;2024-03-25T14:49:10;9.10;;;1.40;;
31482;SDS011;18103;52.246;8.052;2024-03-25T14:51:42;5.60;;;1.00;;
31482;SDS011;18103;52.246;8.052;2024-03-25T14:54:08;3.87;;;1.37;;
31482;SDS011;18103;52.246;8.052;2024-03-25T14:56:38;5.17;;;1.30;;